sensor_id;sensor_type;location;lat;lon;timestamp;temperature;humidity
60313;DHT22;46158;52.850;6.970;2024-01-06T00:00:28;15.30;79.00
60313;DHT22;46158;52.850;6.970;2024-01-06T00:02:53;15.30;79.00
60313;DHT22;46158;52.850;6.970;2024-01-06T00:05:19;15.20;78.90
60313;DHT22;46158;52.850;6.970;2024-01-06T00:07:45;15.20;78.80
60313;DHT22;46158;52.850;6.970;2024-01-06T00:10:10;15.20;78.80
60313;DHT22;46158;52.850;6.970;2024-01-06T00:12:36;15.20;79.50
60313;DHT22;46158;52.850;6.970;2024-01-06T00:15:02;15.20;78.70
60313;DHT22;46158;52.850;6.970;2024-01-06T00:17:28;15.20;78.70
60313;DHT22;46158;52.850;6.970;2024-01-06T00:19:54;15.20;78.70
60313;DHT22;46158;52.850;6.970;2024-01-06T00:22:20;15.10;78.60
60313;DHT22;46158;52.850;6.970;2024-01-06T00:24:46;15.10;78.60
60313;DHT22;46158;52.850;6.970;2024-01-06T00:27:12;15.10;78.50
60313;DHT22;46158;52.850;6.970;2024-01-06T00:29:39;15.10;78.50
60313;DHT22;46158;52.850;6.970;2024-01-06T00:32:05;15.00;78.40
60313;DHT22;46158;52.850;6.970;2024-01-06T00:34:30;15.00;78.40
60313;DHT22;46158;52.850;6.970;2024-01-06T00:36:56;15.00;78.30
60313;DHT22;46158;52.850;6.970;2024-01-06T00:39:22;15.00;78.30
60313;DHT22;46158;52.850;6.970;2024-01-06T00:41:47;15.00;78.30
60313;DHT22;46158;52.850;6.970;2024-01-06T00:44:13;15.00;78.30
60313;DHT22;46158;52.850;6.970;2024-01-06T00:46:39;14.90;78.20
60313;DHT22;46158;52.850;6.970;2024-01-06T00:49:05;14.90;78.20
60313;DHT22;46158;52.850;6.970;2024-01-06T00:51:30;14.90;78.10
60313;DHT22;46158;52.850;6.970;2024-01-06T00:53:56;14.90;78.10
60313;DHT22;46158;52.850;6.970;2024-01-06T00:56:22;14.90;78.00
60313;DHT22;46158;52.850;6.970;2024-01-06T00:58:48;14.80;78.00
60313;DHT22;46158;52.850;6.970;2024-01-06T01:01:14;14.80;78.00
60313;DHT22;46158;52.850;6.970;2024-01-06T01:03:39;14.80;77.90
60313;DHT22;46158;52.850;6.970;2024-01-06T01:06:05;14.80;77.90
60313;DHT22;46158;52.850;6.970;2024-01-06T01:08:31;14.80;77.90
60313;DHT22;46158;52.850;6.970;2024-01-06T01:10:57;14.70;77.80
60313;DHT22;46158;52.850;6.970;2024-01-06T01:13:23;14.70;77.80
60313;DHT22;46158;52.850;6.970;2024-01-06T01:15:49;14.70;77.80
60313;DHT22;46158;52.850;6.970;2024-01-06T01:18:14;14.70;77.80
60313;DHT22;46158;52.850;6.970;2024-01-06T01:20:40;14.60;77.80
60313;DHT22;46158;52.850;6.970;2024-01-06T01:23:09;14.70;78.40
60313;DHT22;46158;52.850;6.970;2024-01-06T01:25:34;14.60;77.70
60313;DHT22;46158;52.850;6.970;2024-01-06T01:28:00;14.60;77.70
60313;DHT22;46158;52.850;6.970;2024-01-06T01:30:25;14.60;77.70
60313;DHT22;46158;52.850;6.970;2024-01-06T01:32:51;14.60;77.60
60313;DHT22;46158;52.850;6.970;2024-01-06T01:35:16;14.60;77.60
60313;DHT22;46158;52.850;6.970;2024-01-06T01:37:43;14.50;77.60
60313;DHT22;46158;52.850;6.970;2024-01-06T01:40:09;14.50;77.60
60313;DHT22;46158;52.850;6.970;2024-01-06T01:42:35;14.50;77.50
60313;DHT22;46158;52.850;6.970;2024-01-06T01:45:00;14.50;77.50
60313;DHT22;46158;52.850;6.970;2024-01-06T01:47:26;14.50;77.50
60313;DHT22;46158;52.850;6.970;2024-01-06T01:49:55;14.40;77.50
60313;DHT22;46158;52.850;6.970;2024-01-06T01:52:21;14.40;77.40
60313;DHT22;46158;52.850;6.970;2024-01-06T01:54:48;14.40;77.50
60313;DHT22;46158;52.850;6.970;2024-01-06T01:57:14;14.40;77.40
60313;DHT22;46158;52.850;6.970;2024-01-06T01:59:41;14.30;77.30
60313;DHT22;46158;52.850;6.970;2024-01-06T02:02:08;14.30;77.30
60313;DHT22;46158;52.850;6.970;2024-01-06T02:04:34;14.30;77.30
60313;DHT22;46158;52.850;6.970;2024-01-06T02:07:00;14.30;77.30
60313;DHT22;46158;52.850;6.970;2024-01-06T02:09:25;14.30;77.30
60313;DHT22;46158;52.850;6.970;2024-01-06T02:11:57;14.30;77.30
60313;DHT22;46158;52.850;6.970;2024-01-06T02:14:23;14.30;77.20
60313;DHT22;46158;52.850;6.970;2024-01-06T02:16:49;14.20;77.20
60313;DHT22;46158;52.850;6.970;2024-01-06T02:19:15;14.20;77.20
60313;DHT22;46158;52.850;6.970;2024-01-06T02:21:43;14.20;77.10
60313;DHT22;46158;52.850;6.970;2024-01-06T02:24:09;14.20;77.20
60313;DHT22;46158;52.850;6.970;2024-01-06T02:26:35;14.20;77.10
60313;DHT22;46158;52.850;6.970;2024-01-06T02:29:01;14.20;77.10
60313;DHT22;46158;52.850;6.970;2024-01-06T02:31:27;14.10;77.00
60313;DHT22;46158;52.850;6.970;2024-01-06T02:33:53;14.10;77.00
60313;DHT22;46158;52.850;6.970;2024-01-06T02:36:19;14.10;77.00
60313;DHT22;46158;52.850;6.970;2024-01-06T02:38:44;14.10;77.00
60313;DHT22;46158;52.850;6.970;2024-01-06T02:41:10;14.10;77.00
60313;DHT22;46158;52.850;6.970;2024-01-06T02:43:36;14.00;76.90
60313;DHT22;46158;52.850;6.970;2024-01-06T02:46:01;14.00;77.00
60313;DHT22;46158;52.850;6.970;2024-01-06T02:48:27;14.00;76.90
60313;DHT22;46158;52.850;6.970;2024-01-06T02:50:55;14.00;76.90
60313;DHT22;46158;52.850;6.970;2024-01-06T02:53:20;14.00;76.90
60313;DHT22;46158;52.850;6.970;2024-01-06T02:55:46;13.90;76.80
60313;DHT22;46158;52.850;6.970;2024-01-06T02:58:11;14.00;76.80
60313;DHT22;46158;52.850;6.970;2024-01-06T03:00:37;13.90;76.80
60313;DHT22;46158;52.850;6.970;2024-01-06T03:03:03;13.90;76.80
60313;DHT22;46158;52.850;6.970;2024-01-06T03:05:28;13.90;76.80
60313;DHT22;46158;52.850;6.970;2024-01-06T03:07:54;13.90;76.80
60313;DHT22;46158;52.850;6.970;2024-01-06T03:10:20;13.90;76.70
60313;DHT22;46158;52.850;6.970;2024-01-06T03:12:45;13.80;76.60
60313;DHT22;46158;52.850;6.970;2024-01-06T03:15:11;13.80;76.70
60313;DHT22;46158;52.850;6.970;2024-01-06T03:17:37;13.80;76.70
60313;DHT22;46158;52.850;6.970;2024-01-06T03:20:03;13.80;76.60
60313;DHT22;46158;52.850;6.970;2024-01-06T03:22:29;13.80;76.60
60313;DHT22;46158;52.850;6.970;2024-01-06T03:24:54;13.80;76.60
60313;DHT22;46158;52.850;6.970;2024-01-06T03:27:20;13.80;76.70
60313;DHT22;46158;52.850;6.970;2024-01-06T03:29:46;13.70;76.70
60313;DHT22;46158;52.850;6.970;2024-01-06T03:32:12;13.70;76.60
60313;DHT22;46158;52.850;6.970;2024-01-06T03:34:37;13.70;76.60
60313;DHT22;46158;52.850;6.970;2024-01-06T03:37:03;13.70;76.60
60313;DHT22;46158;52.850;6.970;2024-01-06T03:39:29;13.70;76.60
60313;DHT22;46158;52.850;6.970;2024-01-06T03:41:54;13.60;76.50
60313;DHT22;46158;52.850;6.970;2024-01-06T03:44:20;13.70;76.60
60313;DHT22;46158;52.850;6.970;2024-01-06T03:46:45;13.60;76.50
60313;DHT22;46158;52.850;6.970;2024-01-06T03:49:11;13.60;76.60
60313;DHT22;46158;52.850;6.970;2024-01-06T03:51:37;13.60;76.50
60313;DHT22;46158;52.850;6.970;2024-01-06T03:54:02;13.60;76.50
60313;DHT22;46158;52.850;6.970;2024-01-06T03:56:28;13.60;76.50
60313;DHT22;46158;52.850;6.970;2024-01-06T03:58:53;13.50;76.50
60313;DHT22;46158;52.850;6.970;2024-01-06T04:01:20;13.50;76.50
60313;DHT22;46158;52.850;6.970;2024-01-06T04:03:45;13.50;76.40
60313;DHT22;46158;52.850;6.970;2024-01-06T04:06:11;13.50;76.50
60313;DHT22;46158;52.850;6.970;2024-01-06T04:08:36;13.50;76.50
60313;DHT22;46158;52.850;6.970;2024-01-06T04:11:02;13.50;76.50
60313;DHT22;46158;52.850;6.970;2024-01-06T04:13:28;13.50;76.50
60313;DHT22;46158;52.850;6.970;2024-01-06T04:15:53;13.40;76.40
60313;DHT22;46158;52.850;6.970;2024-01-06T04:18:19;13.40;76.50
60313;DHT22;46158;52.850;6.970;2024-01-06T04:20:45;13.40;76.50
60313;DHT22;46158;52.850;6.970;2024-01-06T04:23:10;13.40;76.40
60313;DHT22;46158;52.850;6.970;2024-01-06T04:25:36;13.40;76.50
60313;DHT22;46158;52.850;6.970;2024-01-06T04:28:01;13.30;76.40
60313;DHT22;46158;52.850;6.970;2024-01-06T04:30:27;13.30;76.40
60313;DHT22;46158;52.850;6.970;2024-01-06T04:32:53;13.30;76.40
60313;DHT22;46158;52.850;6.970;2024-01-06T04:35:20;13.30;76.40
60313;DHT22;46158;52.850;6.970;2024-01-06T04:37:46;13.30;76.40
60313;DHT22;46158;52.850;6.970;2024-01-06T04:40:11;13.30;77.10
60313;DHT22;46158;52.850;6.970;2024-01-06T04:42:37;13.30;76.40
60313;DHT22;46158;52.850;6.970;2024-01-06T04:45:03;13.30;76.50
60313;DHT22;46158;52.850;6.970;2024-01-06T04:47:29;13.30;76.40
60313;DHT22;46158;52.850;6.970;2024-01-06T04:49:56;13.20;76.40
60313;DHT22;46158;52.850;6.970;2024-01-06T04:52:22;13.20;76.40
60313;DHT22;46158;52.850;6.970;2024-01-06T04:54:47;13.20;76.40
60313;DHT22;46158;52.850;6.970;2024-01-06T04:57:13;13.20;76.40
60313;DHT22;46158;52.850;6.970;2024-01-06T04:59:39;13.20;76.40
60313;DHT22;46158;52.850;6.970;2024-01-06T05:02:05;13.20;76.40
60313;DHT22;46158;52.850;6.970;2024-01-06T05:04:31;13.20;76.40
60313;DHT22;46158;52.850;6.970;2024-01-06T05:06:58;13.10;76.40
60313;DHT22;46158;52.850;6.970;2024-01-06T05:09:24;13.10;76.40
60313;DHT22;46158;52.850;6.970;2024-01-06T05:11:50;13.10;76.40
60313;DHT22;46158;52.850;6.970;2024-01-06T05:14:15;13.10;76.50
60313;DHT22;46158;52.850;6.970;2024-01-06T05:16:41;13.10;76.40
60313;DHT22;46158;52.850;6.970;2024-01-06T05:19:07;13.10;76.40
60313;DHT22;46158;52.850;6.970;2024-01-06T05:21:33;13.00;76.40
60313;DHT22;46158;52.850;6.970;2024-01-06T05:23:59;13.00;76.40
60313;DHT22;46158;52.850;6.970;2024-01-06T05:26:25;13.00;76.40
60313;DHT22;46158;52.850;6.970;2024-01-06T05:28:51;13.00;76.40
60313;DHT22;46158;52.850;6.970;2024-01-06T05:31:17;13.00;76.40
60313;DHT22;46158;52.850;6.970;2024-01-06T05:33:43;13.00;76.40
60313;DHT22;46158;52.850;6.970;2024-01-06T05:36:08;13.00;76.40
60313;DHT22;46158;52.850;6.970;2024-01-06T05:38:35;13.00;76.40
60313;DHT22;46158;52.850;6.970;2024-01-06T05:41:01;12.90;76.40
60313;DHT22;46158;52.850;6.970;2024-01-06T05:43:27;12.90;76.40
60313;DHT22;46158;52.850;6.970;2024-01-06T05:45:53;12.90;76.30
60313;DHT22;46158;52.850;6.970;2024-01-06T05:48:18;12.90;76.30
60313;DHT22;46158;52.850;6.970;2024-01-06T05:50:44;12.90;76.30
60313;DHT22;46158;52.850;6.970;2024-01-06T05:53:09;12.90;76.30
60313;DHT22;46158;52.850;6.970;2024-01-06T05:55:36;12.90;76.30
60313;DHT22;46158;52.850;6.970;2024-01-06T05:58:02;12.80;76.30
60313;DHT22;46158;52.850;6.970;2024-01-06T06:00:27;12.80;76.30
60313;DHT22;46158;52.850;6.970;2024-01-06T06:02:53;12.80;76.30
60313;DHT22;46158;52.850;6.970;2024-01-06T06:05:18;12.80;76.30
60313;DHT22;46158;52.850;6.970;2024-01-06T06:07:45;12.80;76.30
60313;DHT22;46158;52.850;6.970;2024-01-06T06:10:11;12.80;76.30
60313;DHT22;46158;52.850;6.970;2024-01-06T06:12:37;12.80;76.30
60313;DHT22;46158;52.850;6.970;2024-01-06T06:15:04;12.80;76.30
60313;DHT22;46158;52.850;6.970;2024-01-06T06:17:30;12.70;76.30
60313;DHT22;46158;52.850;6.970;2024-01-06T06:19:57;12.70;76.30
60313;DHT22;46158;52.850;6.970;2024-01-06T06:22:22;12.70;76.30
60313;DHT22;46158;52.850;6.970;2024-01-06T06:24:48;12.70;76.30
60313;DHT22;46158;52.850;6.970;2024-01-06T06:27:14;12.70;76.30
60313;DHT22;46158;52.850;6.970;2024-01-06T06:29:39;12.70;76.40
60313;DHT22;46158;52.850;6.970;2024-01-06T06:32:05;12.70;76.40
60313;DHT22;46158;52.850;6.970;2024-01-06T06:34:31;12.60;76.30
60313;DHT22;46158;52.850;6.970;2024-01-06T06:36:56;12.70;76.30
60313;DHT22;46158;52.850;6.970;2024-01-06T06:39:22;12.60;76.40
60313;DHT22;46158;52.850;6.970;2024-01-06T06:41:48;12.60;76.40
60313;DHT22;46158;52.850;6.970;2024-01-06T06:44:14;12.60;76.40
60313;DHT22;46158;52.850;6.970;2024-01-06T06:46:39;12.60;76.40
60313;DHT22;46158;52.850;6.970;2024-01-06T06:49:05;12.60;76.50
60313;DHT22;46158;52.850;6.970;2024-01-06T06:51:30;12.60;76.50
60313;DHT22;46158;52.850;6.970;2024-01-06T06:53:56;12.60;76.50
60313;DHT22;46158;52.850;6.970;2024-01-06T06:56:22;12.50;76.40
60313;DHT22;46158;52.850;6.970;2024-01-06T06:58:48;12.60;76.50
60313;DHT22;46158;52.850;6.970;2024-01-06T07:01:15;12.60;76.20
60313;DHT22;46158;52.850;6.970;2024-01-06T07:03:41;12.50;76.10
60313;DHT22;46158;52.850;6.970;2024-01-06T07:06:06;12.50;76.20
60313;DHT22;46158;52.850;6.970;2024-01-06T07:08:32;12.50;76.30
60313;DHT22;46158;52.850;6.970;2024-01-06T07:10:58;12.60;76.40
60313;DHT22;46158;52.850;6.970;2024-01-06T07:13:23;12.60;76.50
60313;DHT22;46158;52.850;6.970;2024-01-06T07:15:49;12.50;76.50
60313;DHT22;46158;52.850;6.970;2024-01-06T07:18:17;12.50;76.50
60313;DHT22;46158;52.850;6.970;2024-01-06T07:20:44;12.50;76.50
60313;DHT22;46158;52.850;6.970;2024-01-06T07:23:10;12.50;76.50
60313;DHT22;46158;52.850;6.970;2024-01-06T07:25:35;12.50;76.60
60313;DHT22;46158;52.850;6.970;2024-01-06T07:28:01;12.50;76.60
60313;DHT22;46158;52.850;6.970;2024-01-06T07:30:27;12.50;76.70
60313;DHT22;46158;52.850;6.970;2024-01-06T07:32:53;12.50;76.70
60313;DHT22;46158;52.850;6.970;2024-01-06T07:35:18;12.60;76.70
60313;DHT22;46158;52.850;6.970;2024-01-06T07:37:44;12.50;76.70
60313;DHT22;46158;52.850;6.970;2024-01-06T07:40:10;12.50;76.30
60313;DHT22;46158;52.850;6.970;2024-01-06T07:42:36;12.50;76.00
60313;DHT22;46158;52.850;6.970;2024-01-06T07:45:01;12.50;75.90
60313;DHT22;46158;52.850;6.970;2024-01-06T07:47:27;12.50;75.90
60313;DHT22;46158;52.850;6.970;2024-01-06T07:49:53;12.50;75.90
60313;DHT22;46158;52.850;6.970;2024-01-06T07:52:20;12.50;76.00
60313;DHT22;46158;52.850;6.970;2024-01-06T07:54:45;12.50;76.20
60313;DHT22;46158;52.850;6.970;2024-01-06T07:57:11;12.50;76.30
60313;DHT22;46158;52.850;6.970;2024-01-06T07:59:38;12.50;75.80
60313;DHT22;46158;52.850;6.970;2024-01-06T08:02:04;12.50;75.20
60313;DHT22;46158;52.850;6.970;2024-01-06T08:04:29;12.50;75.00
60313;DHT22;46158;52.850;6.970;2024-01-06T08:06:55;12.40;75.20
60313;DHT22;46158;52.850;6.970;2024-01-06T08:09:20;12.50;75.80
60313;DHT22;46158;52.850;6.970;2024-01-06T08:11:47;12.50;76.20
60313;DHT22;46158;52.850;6.970;2024-01-06T08:14:13;12.50;77.20
60313;DHT22;46158;52.850;6.970;2024-01-06T08:16:39;12.50;76.80
60313;DHT22;46158;52.850;6.970;2024-01-06T08:19:04;12.60;77.10
60313;DHT22;46158;52.850;6.970;2024-01-06T08:21:30;12.60;77.30
60313;DHT22;46158;52.850;6.970;2024-01-06T08:23:56;12.60;77.50
60313;DHT22;46158;52.850;6.970;2024-01-06T08:26:21;12.70;77.80
60313;DHT22;46158;52.850;6.970;2024-01-06T08:28:47;12.70;78.00
60313;DHT22;46158;52.850;6.970;2024-01-06T08:31:13;12.80;77.40
60313;DHT22;46158;52.850;6.970;2024-01-06T08:33:38;12.80;76.90
60313;DHT22;46158;52.850;6.970;2024-01-06T08:36:05;12.80;77.10
60313;DHT22;46158;52.850;6.970;2024-01-06T08:38:30;12.90;77.40
60313;DHT22;46158;52.850;6.970;2024-01-06T08:40:56;12.90;77.60
60313;DHT22;46158;52.850;6.970;2024-01-06T08:43:22;13.00;77.80
60313;DHT22;46158;52.850;6.970;2024-01-06T08:45:47;13.00;78.00
60313;DHT22;46158;52.850;6.970;2024-01-06T08:48:13;13.00;78.10
60313;DHT22;46158;52.850;6.970;2024-01-06T08:50:40;13.10;78.20
60313;DHT22;46158;52.850;6.970;2024-01-06T08:53:06;13.10;78.30
60313;DHT22;46158;52.850;6.970;2024-01-06T08:55:31;13.20;78.40
60313;DHT22;46158;52.850;6.970;2024-01-06T08:57:57;13.20;78.50
60313;DHT22;46158;52.850;6.970;2024-01-06T09:00:23;13.20;78.50
60313;DHT22;46158;52.850;6.970;2024-01-06T09:02:48;13.30;78.50
60313;DHT22;46158;52.850;6.970;2024-01-06T09:05:14;13.30;78.40
60313;DHT22;46158;52.850;6.970;2024-01-06T09:07:40;13.30;78.50
60313;DHT22;46158;52.850;6.970;2024-01-06T09:10:06;13.40;79.20
60313;DHT22;46158;52.850;6.970;2024-01-06T09:12:32;13.40;78.70
60313;DHT22;46158;52.850;6.970;2024-01-06T09:14:58;13.40;78.80
60313;DHT22;46158;52.850;6.970;2024-01-06T09:17:26;13.50;79.00
60313;DHT22;46158;52.850;6.970;2024-01-06T09:19:52;13.50;79.10
60313;DHT22;46158;52.850;6.970;2024-01-06T09:22:19;13.50;79.20
60313;DHT22;46158;52.850;6.970;2024-01-06T09:24:45;13.60;79.20
60313;DHT22;46158;52.850;6.970;2024-01-06T09:27:10;13.60;79.30
60313;DHT22;46158;52.850;6.970;2024-01-06T09:29:36;13.60;79.50
60313;DHT22;46158;52.850;6.970;2024-01-06T09:32:02;13.70;79.50
60313;DHT22;46158;52.850;6.970;2024-01-06T09:34:27;13.70;79.50
60313;DHT22;46158;52.850;6.970;2024-01-06T09:36:53;13.80;79.70
60313;DHT22;46158;52.850;6.970;2024-01-06T09:39:19;13.80;79.80
60313;DHT22;46158;52.850;6.970;2024-01-06T09:41:44;13.80;80.00
60313;DHT22;46158;52.850;6.970;2024-01-06T09:44:10;13.90;80.40
60313;DHT22;46158;52.850;6.970;2024-01-06T09:46:36;13.90;79.80
60313;DHT22;46158;52.850;6.970;2024-01-06T09:49:03;13.90;76.70
60313;DHT22;46158;52.850;6.970;2024-01-06T09:51:29;13.90;77.10
60313;DHT22;46158;52.850;6.970;2024-01-06T09:54:00;13.80;77.40
60313;DHT22;46158;52.850;6.970;2024-01-06T09:56:27;13.80;77.50
60313;DHT22;46158;52.850;6.970;2024-01-06T09:58:53;13.80;77.40
60313;DHT22;46158;52.850;6.970;2024-01-06T10:01:19;13.80;77.40
60313;DHT22;46158;52.850;6.970;2024-01-06T10:03:45;13.80;77.50
60313;DHT22;46158;52.850;6.970;2024-01-06T10:06:12;13.80;77.60
60313;DHT22;46158;52.850;6.970;2024-01-06T10:08:38;13.80;77.50
60313;DHT22;46158;52.850;6.970;2024-01-06T10:11:06;13.80;77.00
60313;DHT22;46158;52.850;6.970;2024-01-06T10:13:33;13.80;76.80
60313;DHT22;46158;52.850;6.970;2024-01-06T10:15:59;13.80;76.90
60313;DHT22;46158;52.850;6.970;2024-01-06T10:18:25;13.80;76.90
60313;DHT22;46158;52.850;6.970;2024-01-06T10:20:52;13.80;76.50
60313;DHT22;46158;52.850;6.970;2024-01-06T10:23:18;13.80;76.40
60313;DHT22;46158;52.850;6.970;2024-01-06T10:25:44;13.80;76.30
60313;DHT22;46158;52.850;6.970;2024-01-06T10:28:13;13.80;76.20
60313;DHT22;46158;52.850;6.970;2024-01-06T10:30:41;13.70;76.20
60313;DHT22;46158;52.850;6.970;2024-01-06T10:33:10;13.70;76.30
60313;DHT22;46158;52.850;6.970;2024-01-06T10:35:36;13.70;76.40
60313;DHT22;46158;52.850;6.970;2024-01-06T10:38:02;13.70;76.30
60313;DHT22;46158;52.850;6.970;2024-01-06T10:40:29;13.70;76.30
60313;DHT22;46158;52.850;6.970;2024-01-06T10:42:56;13.70;76.40
60313;DHT22;46158;52.850;6.970;2024-01-06T10:45:23;13.70;76.40
60313;DHT22;46158;52.850;6.970;2024-01-06T10:47:49;13.70;76.20
60313;DHT22;46158;52.850;6.970;2024-01-06T10:50:17;13.60;76.10
60313;DHT22;46158;52.850;6.970;2024-01-06T10:52:43;13.60;75.90
60313;DHT22;46158;52.850;6.970;2024-01-06T10:55:09;13.60;75.90
60313;DHT22;46158;52.850;6.970;2024-01-06T10:57:37;13.60;76.20
60313;DHT22;46158;52.850;6.970;2024-01-06T11:00:04;13.60;76.10
60313;DHT22;46158;52.850;6.970;2024-01-06T11:02:31;13.70;76.50
60313;DHT22;46158;52.850;6.970;2024-01-06T11:04:57;13.60;76.60
60313;DHT22;46158;52.850;6.970;2024-01-06T11:07:25;13.70;76.70
60313;DHT22;46158;52.850;6.970;2024-01-06T11:10:15;13.70;76.80
60313;DHT22;46158;52.850;6.970;2024-01-06T11:12:42;13.70;76.80
60313;DHT22;46158;52.850;6.970;2024-01-06T11:15:08;13.70;76.90
60313;DHT22;46158;52.850;6.970;2024-01-06T11:17:53;13.70;77.00
60313;DHT22;46158;52.850;6.970;2024-01-06T11:20:20;13.70;77.00
60313;DHT22;46158;52.850;6.970;2024-01-06T11:22:51;13.60;77.10
60313;DHT22;46158;52.850;6.970;2024-01-06T11:25:21;13.70;77.20
60313;DHT22;46158;52.850;6.970;2024-01-06T11:27:48;13.70;77.20
60313;DHT22;46158;52.850;6.970;2024-01-06T11:30:24;13.60;77.20
60313;DHT22;46158;52.850;6.970;2024-01-06T11:32:55;13.70;77.30
60313;DHT22;46158;52.850;6.970;2024-01-06T11:35:28;13.70;77.40
60313;DHT22;46158;52.850;6.970;2024-01-06T11:37:56;13.70;77.50
60313;DHT22;46158;52.850;6.970;2024-01-06T11:43:04;13.70;78.40
60313;DHT22;46158;52.850;6.970;2024-01-06T11:45:31;13.70;77.70
60313;DHT22;46158;52.850;6.970;2024-01-06T11:48:05;13.70;77.80
60313;DHT22;46158;52.850;6.970;2024-01-06T11:50:32;13.70;77.90
60313;DHT22;46158;52.850;6.970;2024-01-06T11:52:58;13.70;77.90
60313;DHT22;46158;52.850;6.970;2024-01-06T11:55:25;13.70;77.90
60313;DHT22;46158;52.850;6.970;2024-01-06T11:57:54;13.80;78.00
60313;DHT22;46158;52.850;6.970;2024-01-06T12:00:20;13.70;78.60
60313;DHT22;46158;52.850;6.970;2024-01-06T12:02:45;13.80;78.00
60313;DHT22;46158;52.850;6.970;2024-01-06T12:05:18;13.80;78.00
60313;DHT22;46158;52.850;6.970;2024-01-06T12:07:53;13.80;77.90
60313;DHT22;46158;52.850;6.970;2024-01-06T12:10:23;13.80;77.90
60313;DHT22;46158;52.850;6.970;2024-01-06T12:13:05;13.80;78.00
60313;DHT22;46158;52.850;6.970;2024-01-06T12:15:34;13.80;77.90
60313;DHT22;46158;52.850;6.970;2024-01-06T12:18:03;13.80;78.00
60313;DHT22;46158;52.850;6.970;2024-01-06T12:20:29;13.80;78.70
60313;DHT22;46158;52.850;6.970;2024-01-06T12:22:55;13.80;78.00
60313;DHT22;46158;52.850;6.970;2024-01-06T12:25:22;13.80;78.00
60313;DHT22;46158;52.850;6.970;2024-01-06T12:27:48;13.80;78.00
60313;DHT22;46158;52.850;6.970;2024-01-06T12:30:19;13.90;78.10
60313;DHT22;46158;52.850;6.970;2024-01-06T12:32:46;13.90;77.90
60313;DHT22;46158;52.850;6.970;2024-01-06T12:35:14;13.90;78.00
60313;DHT22;46158;52.850;6.970;2024-01-06T12:37:43;13.90;78.00
60313;DHT22;46158;52.850;6.970;2024-01-06T12:40:13;13.90;77.90
60313;DHT22;46158;52.850;6.970;2024-01-06T12:42:42;13.90;77.90
60313;DHT22;46158;52.850;6.970;2024-01-06T12:45:08;13.90;77.90
60313;DHT22;46158;52.850;6.970;2024-01-06T12:47:34;13.90;77.70
60313;DHT22;46158;52.850;6.970;2024-01-06T12:50:02;13.90;77.60
60313;DHT22;46158;52.850;6.970;2024-01-06T12:52:29;14.00;77.50
60313;DHT22;46158;52.850;6.970;2024-01-06T12:54:55;14.00;76.80
60313;DHT22;46158;52.850;6.970;2024-01-06T12:57:20;13.90;76.40
60313;DHT22;46158;52.850;6.970;2024-01-06T12:59:46;13.90;76.40
60313;DHT22;46158;52.850;6.970;2024-01-06T13:02:12;14.00;76.50
60313;DHT22;46158;52.850;6.970;2024-01-06T13:04:38;14.00;76.60
60313;DHT22;46158;52.850;6.970;2024-01-06T13:07:03;14.00;76.60
60313;DHT22;46158;52.850;6.970;2024-01-06T13:09:29;14.00;76.70
60313;DHT22;46158;52.850;6.970;2024-01-06T13:11:55;14.00;76.70
60313;DHT22;46158;52.850;6.970;2024-01-06T13:14:26;14.00;76.70
60313;DHT22;46158;52.850;6.970;2024-01-06T13:16:52;14.00;76.90
60313;DHT22;46158;52.850;6.970;2024-01-06T13:19:18;14.00;76.90
60313;DHT22;46158;52.850;6.970;2024-01-06T13:21:45;14.00;76.90
60313;DHT22;46158;52.850;6.970;2024-01-06T13:24:10;14.00;77.60
60313;DHT22;46158;52.850;6.970;2024-01-06T13:26:37;14.00;76.90
60313;DHT22;46158;52.850;6.970;2024-01-06T13:29:03;14.00;77.00
60313;DHT22;46158;52.850;6.970;2024-01-06T13:31:29;14.00;77.00
60313;DHT22;46158;52.850;6.970;2024-01-06T13:33:56;14.00;77.00
60313;DHT22;46158;52.850;6.970;2024-01-06T13:36:22;14.00;77.00
60313;DHT22;46158;52.850;6.970;2024-01-06T13:38:47;14.00;77.10
60313;DHT22;46158;52.850;6.970;2024-01-06T13:41:14;14.00;77.20
60313;DHT22;46158;52.850;6.970;2024-01-06T13:43:40;14.00;77.40
60313;DHT22;46158;52.850;6.970;2024-01-06T13:46:06;14.00;77.50
60313;DHT22;46158;52.850;6.970;2024-01-06T13:48:31;14.00;77.70
60313;DHT22;46158;52.850;6.970;2024-01-06T13:50:57;14.00;77.90
60313;DHT22;46158;52.850;6.970;2024-01-06T13:53:24;14.00;78.20
60313;DHT22;46158;52.850;6.970;2024-01-06T13:55:49;14.00;78.40
60313;DHT22;46158;52.850;6.970;2024-01-06T13:58:15;14.00;78.60
60313;DHT22;46158;52.850;6.970;2024-01-06T14:00:43;14.00;78.80
60313;DHT22;46158;52.850;6.970;2024-01-06T14:03:08;14.00;79.00
60313;DHT22;46158;52.850;6.970;2024-01-06T14:05:34;14.00;79.20
60313;DHT22;46158;52.850;6.970;2024-01-06T14:08:00;14.10;79.40
60313;DHT22;46158;52.850;6.970;2024-01-06T14:10:26;14.10;79.60
60313;DHT22;46158;52.850;6.970;2024-01-06T14:12:53;14.10;79.70
60313;DHT22;46158;52.850;6.970;2024-01-06T14:15:19;14.10;79.80
60313;DHT22;46158;52.850;6.970;2024-01-06T14:17:45;14.10;80.00
60313;DHT22;46158;52.850;6.970;2024-01-06T14:20:15;14.10;80.10
60313;DHT22;46158;52.850;6.970;2024-01-06T14:22:46;14.10;80.10
60313;DHT22;46158;52.850;6.970;2024-01-06T14:25:15;14.20;80.30
60313;DHT22;46158;52.850;6.970;2024-01-06T14:27:43;14.20;81.00
60313;DHT22;46158;52.850;6.970;2024-01-06T14:30:10;14.20;80.30
60313;DHT22;46158;52.850;6.970;2024-01-06T14:32:36;14.20;80.40
60313;DHT22;46158;52.850;6.970;2024-01-06T14:35:04;14.20;80.40
60313;DHT22;46158;52.850;6.970;2024-01-06T14:37:32;14.20;80.40
60313;DHT22;46158;52.850;6.970;2024-01-06T14:39:57;14.20;80.40
60313;DHT22;46158;52.850;6.970;2024-01-06T14:42:23;14.30;80.50
60313;DHT22;46158;52.850;6.970;2024-01-06T14:44:49;14.30;80.50
60313;DHT22;46158;52.850;6.970;2024-01-06T14:47:14;14.30;80.50
60313;DHT22;46158;52.850;6.970;2024-01-06T14:49:40;14.30;80.50
60313;DHT22;46158;52.850;6.970;2024-01-06T14:52:06;14.30;80.50
60313;DHT22;46158;52.850;6.970;2024-01-06T14:54:32;14.30;80.40
60313;DHT22;46158;52.850;6.970;2024-01-06T14:56:58;14.40;80.40
60313;DHT22;46158;52.850;6.970;2024-01-06T14:59:24;14.40;80.50
60313;DHT22;46158;52.850;6.970;2024-01-06T15:01:50;14.40;80.40
60313;DHT22;46158;52.850;6.970;2024-01-06T15:04:15;14.40;80.40
60313;DHT22;46158;52.850;6.970;2024-01-06T15:06:44;14.40;80.30
60313;DHT22;46158;52.850;6.970;2024-01-06T15:09:09;14.40;80.40
60313;DHT22;46158;52.850;6.970;2024-01-06T15:11:35;14.40;80.30
60313;DHT22;46158;52.850;6.970;2024-01-06T15:14:01;14.40;80.30
60313;DHT22;46158;52.850;6.970;2024-01-06T15:16:30;14.50;80.40
60313;DHT22;46158;52.850;6.970;2024-01-06T15:18:56;14.50;80.50
60313;DHT22;46158;52.850;6.970;2024-01-06T15:21:24;14.50;80.50
60313;DHT22;46158;52.850;6.970;2024-01-06T15:23:51;14.50;80.60
60313;DHT22;46158;52.850;6.970;2024-01-06T15:26:24;14.50;80.50